LiveATC.Net - Listen to live air traffic control over the Internet! Contact LiveATC.net for advertising information


ICAO: SKCL  IATA: CLO   Airport: Alfonso Bonilla Aragon International Airport
City: Cali
Country: Colombia   Continent: South America
SKCL METAR Weather: SKCL 311900Z 19003KT 9999 FEW023 SCT100 34/15 A2987
SKCL Flight Activity (FlightAware)
SKCL Approach
Feed Status: DOWN
Last heard on: 2014-07-31 04:00:04 (0 days 15 hours 37 minutes ago)
SKCL Approach Audio Archives
FacilityFrequency
Cali Approach119.100


NOTICE

Unauthorized use prohibited. See LiveATC.net Terms of Service


Find LiveATC Audio Streams


Airport/ARTCC Code

Frequency
(e.g., 124.400, 128.75)
Site-wide search

Browse LiveATC Feeds
LiveATC Coverage Map
Top 50 LiveATC Feeds
Bad Weather Areas

LiveATC FAQ
Offer a LiveATC Feed
Contact LiveATC.net
Press Inquiries

LiveATC on iPhone
LiveATC on Android

LiveATC Mobile
(Mobile browser)

ATC Audio Archives
Interesting Recordings

LiveATC Forums


Home Page
About LiveATC.net
Make a Donation
LiveATC Bookstore

Terms of Use
Privacy Policy

ATC/Radar Sites
U.S. ARTCC Freqs
Canadian Air Freqs

AIRMETs/SIGMETs

FAA Airport Status
Nat'l Airspace Status
Arrival Demand Charts


Server Software By:
Icecast.org
Liquidsoap

Please make a donation to help us keep growing!